createdAt,value
2023-04-02T00:01:29.013Z,9.10
2023-04-02T00:04:30.108Z,9.07
2023-04-02T00:07:31.234Z,9.10
2023-04-02T00:10:31.804Z,9.09
2023-04-02T00:13:29.764Z,9.05
2023-04-02T00:16:23.951Z,9.03
2023-04-02T00:19:19.736Z,9.02
2023-04-02T00:22:14.691Z,9.01
2023-04-02T00:25:14.125Z,8.97
2023-04-02T00:28:04.957Z,9.00
2023-04-02T00:30:56.227Z,9.04
2023-04-02T00:33:46.155Z,9.03
2023-04-02T00:36:36.899Z,9.00
2023-04-02T00:39:28.662Z,9.01
2023-04-02T00:42:20.586Z,9.01
2023-04-02T00:45:19.591Z,9.00
2023-04-02T00:48:25.899Z,9.01
2023-04-02T00:51:20.980Z,8.95
2023-04-02T00:54:15.768Z,9.01
2023-04-02T00:57:04.950Z,9.00
2023-04-02T01:00:01.257Z,8.96
2023-04-02T01:03:28.931Z,9.02
2023-04-02T01:06:19.248Z,8.94
2023-04-02T01:09:26.491Z,8.97
2023-04-02T01:12:34.357Z,8.85
2023-04-02T01:15:30.766Z,8.94
2023-04-02T01:18:46.391Z,8.91
2023-04-02T01:21:43.657Z,8.98
2023-04-02T01:24:34.737Z,8.94
2023-04-02T01:27:29.059Z,8.90
2023-04-02T01:30:20.810Z,8.85
2023-04-02T01:33:09.540Z,8.87
2023-04-02T01:36:08.149Z,8.84
2023-04-02T01:39:05.603Z,8.88
2023-04-02T01:42:03.929Z,8.86
2023-04-02T01:44:54.805Z,8.88
2023-04-02T01:47:46.291Z,8.90
2023-04-02T01:50:38.024Z,8.89
2023-04-02T01:53:30.788Z,8.93
2023-04-02T01:56:20.083Z,8.93
2023-04-02T01:59:11.345Z,8.90
2023-04-02T02:02:05.764Z,8.88
2023-04-02T02:04:59.480Z,8.83
2023-04-02T02:07:49.570Z,8.81
2023-04-02T02:10:41.138Z,8.87
2023-04-02T02:13:29.876Z,8.80
2023-04-02T02:16:20.416Z,8.84
2023-04-02T02:19:20.276Z,8.80
2023-04-02T02:22:18.529Z,8.75
2023-04-02T02:25:15.499Z,8.84
2023-04-02T02:28:08.916Z,8.77
2023-04-02T02:31:02.045Z,8.80
2023-04-02T02:33:53.849Z,8.82
2023-04-02T02:36:50.747Z,8.86
2023-04-02T02:39:44.663Z,8.78
2023-04-02T02:42:40.434Z,8.84
2023-04-02T02:45:34.849Z,8.86
2023-04-02T02:48:29.000Z,8.84
2023-04-02T02:51:24.658Z,8.84
2023-04-02T02:54:15.732Z,8.86
2023-04-02T02:57:11.139Z,8.89
2023-04-02T03:00:05.594Z,8.90
2023-04-02T03:02:58.156Z,8.85
2023-04-02T03:05:53.756Z,8.90
2023-04-02T03:08:46.509Z,8.87
2023-04-02T03:11:43.806Z,8.93
2023-04-02T03:14:44.210Z,8.92
2023-04-02T03:17:37.998Z,8.93
2023-04-02T03:20:38.314Z,8.78
2023-04-02T03:23:31.025Z,8.96
2023-04-02T03:26:24.416Z,8.96
2023-04-02T03:29:19.834Z,8.98
2023-04-02T03:32:15.961Z,9.00
2023-04-02T03:35:17.164Z,9.00
2023-04-02T03:38:13.080Z,9.02
2023-04-02T03:41:13.279Z,8.99
2023-04-02T03:44:08.088Z,9.01
2023-04-02T03:46:59.949Z,9.03
2023-04-02T03:49:58.818Z,9.05
2023-04-02T03:52:49.966Z,9.05
2023-04-02T03:55:41.868Z,9.01
2023-04-02T03:58:39.716Z,8.88
2023-04-02T04:01:34.864Z,9.01
2023-04-02T04:04:28.344Z,9.04
2023-04-02T04:07:24.094Z,9.02
2023-04-02T04:10:19.644Z,9.01
2023-04-02T04:13:12.403Z,9.05
2023-04-02T04:16:08.360Z,9.02
2023-04-02T04:19:05.497Z,9.01
2023-04-02T04:22:11.028Z,9.01
2023-04-02T04:25:03.903Z,8.99
2023-04-02T04:28:05.615Z,8.98
2023-04-02T04:31:02.890Z,8.99
2023-04-02T04:34:03.960Z,8.95
2023-04-02T04:37:02.120Z,8.88
2023-04-02T04:40:00.215Z,8.83
2023-04-02T04:42:54.094Z,8.85
2023-04-02T04:45:47.260Z,8.51
2023-04-02T04:48:48.232Z,8.88
2023-04-02T04:51:43.770Z,8.89
2023-04-02T04:54:33.236Z,8.81
2023-04-02T04:57:31.748Z,8.84
2023-04-02T05:00:27.812Z,8.84
2023-04-02T05:03:29.077Z,8.87
2023-04-02T05:06:33.377Z,8.85
2023-04-02T05:09:30.597Z,8.87
2023-04-02T05:12:28.137Z,8.88
2023-04-02T05:15:22.976Z,8.89
2023-04-02T05:18:27.221Z,8.89
2023-04-02T05:21:21.644Z,8.87
2023-04-02T05:24:38.402Z,8.88
2023-04-02T05:27:34.654Z,8.79
2023-04-02T05:30:53.056Z,8.75
2023-04-02T05:33:48.487Z,8.80
2023-04-02T05:36:39.585Z,8.84
2023-04-02T05:39:29.725Z,8.74
2023-04-02T05:42:24.809Z,8.76
2023-04-02T05:45:28.523Z,8.70
2023-04-02T05:48:23.109Z,8.70
2023-04-02T05:51:20.317Z,8.66
2023-04-02T05:54:23.641Z,8.70
2023-04-02T05:57:29.605Z,8.76
2023-04-02T06:00:47.610Z,8.74
2023-04-02T06:03:48.757Z,8.61
2023-04-02T06:06:52.418Z,8.71
2023-04-02T06:09:48.104Z,8.68
2023-04-02T06:12:42.074Z,8.69
2023-04-02T06:15:34.789Z,8.65
2023-04-02T06:18:31.278Z,8.69
2023-04-02T06:21:23.877Z,8.67
2023-04-02T06:24:19.345Z,8.62
2023-04-02T06:27:16.825Z,8.67
2023-04-02T06:30:16.377Z,8.70
2023-04-02T06:33:06.249Z,8.73
2023-04-02T06:36:00.683Z,8.72
2023-04-02T06:38:55.361Z,8.64
2023-04-02T06:41:46.048Z,8.76
2023-04-02T06:45:12.277Z,8.81
2023-04-02T06:48:17.107Z,8.83
2023-04-02T06:51:10.368Z,8.82
2023-04-02T06:54:00.061Z,8.84
2023-04-02T06:56:53.201Z,8.89
2023-04-02T06:59:57.238Z,8.79
2023-04-02T07:02:48.353Z,8.90
2023-04-02T07:05:37.289Z,8.93
2023-04-02T07:08:27.129Z,8.88
2023-04-02T07:11:18.237Z,8.92
2023-04-02T07:14:13.547Z,8.87
2023-04-02T07:17:03.010Z,8.92
2023-04-02T07:19:52.748Z,8.98
2023-04-02T07:22:42.632Z,8.99
2023-04-02T07:25:31.778Z,8.96
2023-04-02T07:28:22.659Z,8.96
2023-04-02T07:31:19.347Z,8.92
2023-04-02T07:34:08.806Z,8.87
2023-04-02T07:36:57.482Z,8.80
2023-04-02T07:39:46.252Z,8.80
2023-04-02T07:42:34.930Z,8.76
2023-04-02T07:45:23.608Z,8.67
2023-04-02T07:48:16.364Z,8.69
2023-04-02T07:51:06.034Z,8.82
2023-04-02T07:53:56.492Z,8.80
2023-04-02T07:56:45.393Z,8.76
2023-04-02T07:59:34.842Z,8.81
2023-04-02T08:02:24.404Z,8.80
2023-04-02T08:05:15.573Z,8.86
2023-04-02T08:08:04.547Z,8.90
2023-04-02T08:10:56.529Z,8.90
2023-04-02T08:13:45.443Z,8.93
2023-04-02T08:16:46.434Z,8.93
2023-04-02T08:19:44.408Z,8.91
2023-04-02T08:22:42.944Z,8.84
2023-04-02T08:25:31.628Z,8.82
2023-04-02T08:28:21.665Z,8.84
2023-04-02T08:31:11.081Z,8.88
2023-04-02T08:34:01.623Z,8.87
2023-04-02T08:36:50.609Z,8.91
2023-04-02T08:39:42.266Z,8.98
2023-04-02T08:42:38.738Z,9.02
2023-04-02T08:45:40.259Z,9.07
2023-04-02T08:48:31.894Z,9.09
2023-04-02T08:51:25.137Z,8.65
2023-04-02T08:54:20.490Z,9.11
2023-04-02T08:57:22.425Z,9.23
2023-04-02T09:00:27.463Z,9.23
2023-04-02T09:03:19.504Z,9.17
2023-04-02T09:06:14.290Z,9.07
2023-04-02T09:09:05.037Z,8.94
2023-04-02T09:11:56.348Z,9.17
2023-04-02T09:14:53.144Z,9.08
2023-04-02T09:17:53.110Z,9.21
2023-04-02T09:20:43.664Z,9.25
2023-04-02T09:23:33.298Z,9.23
2023-04-02T09:26:25.082Z,9.26
2023-04-02T09:29:41.780Z,9.32
2023-04-02T09:32:51.342Z,9.51
2023-04-02T09:35:56.479Z,9.42
2023-04-02T09:38:58.684Z,9.50
2023-04-02T09:41:59.041Z,9.36
2023-04-02T09:44:53.908Z,9.28
2023-04-02T09:47:43.456Z,9.40
2023-04-02T09:50:35.118Z,9.39
2023-04-02T09:53:34.490Z,9.48
2023-04-02T09:56:26.531Z,9.47
2023-04-02T09:59:17.908Z,9.46
2023-04-02T10:02:25.397Z,9.63
2023-04-02T10:05:30.073Z,9.62
2023-04-02T10:08:30.252Z,9.67
2023-04-02T10:11:22.990Z,9.72
2023-04-02T10:14:21.508Z,9.71
2023-04-02T10:17:16.693Z,9.73
2023-04-02T10:20:18.675Z,9.70
2023-04-02T10:23:16.767Z,9.71
2023-04-02T10:26:20.470Z,9.81
2023-04-02T10:29:21.406Z,9.89
2023-04-02T10:32:15.775Z,9.89
2023-04-02T10:35:11.453Z,9.91
2023-04-02T10:38:28.539Z,10.07
2023-04-02T10:41:44.591Z,10.19
2023-04-02T10:44:43.940Z,10.29
2023-04-02T10:47:41.552Z,10.43
2023-04-02T10:50:37.602Z,10.57
2023-04-02T10:53:38.179Z,10.61
2023-04-02T10:56:29.786Z,10.69
2023-04-02T10:59:26.131Z,10.64
2023-04-02T11:02:32.288Z,10.58
2023-04-02T11:05:29.220Z,10.62
2023-04-02T11:08:21.886Z,10.68
2023-04-02T11:11:15.609Z,10.53
2023-04-02T11:14:11.557Z,10.51
2023-04-02T11:17:04.274Z,10.48
2023-04-02T11:19:55.093Z,10.45
2023-04-02T11:22:44.554Z,10.51
2023-04-02T11:25:33.498Z,10.46
2023-04-02T11:28:29.491Z,10.39
2023-04-02T11:31:21.958Z,10.35
2023-04-02T11:34:17.150Z,10.35
2023-04-02T11:37:10.424Z,10.40
2023-04-02T11:40:00.564Z,10.45
2023-04-02T11:42:51.300Z,10.46
2023-04-02T11:45:55.350Z,10.42
2023-04-02T11:48:46.162Z,10.36
2023-04-02T11:51:56.615Z,10.31
2023-04-02T11:55:01.339Z,10.26
2023-04-02T11:58:20.928Z,10.27
2023-04-02T12:01:46.225Z,10.28
2023-04-02T12:05:04.280Z,10.25
2023-04-02T12:08:07.918Z,10.21
2023-04-02T12:10:59.595Z,10.21
2023-04-02T12:13:52.858Z,10.27
2023-04-02T12:16:42.471Z,10.27
2023-04-02T12:19:32.866Z,10.20
2023-04-02T12:22:24.847Z,10.19
2023-04-02T12:25:29.209Z,10.20
2023-04-02T12:28:22.894Z,10.18
2023-04-02T12:31:16.616Z,10.28
2023-04-02T12:34:06.292Z,10.26
2023-04-02T12:36:59.564Z,10.32
2023-04-02T12:39:55.295Z,10.34
2023-04-02T12:42:46.723Z,10.41
2023-04-02T12:45:36.632Z,10.47
2023-04-02T12:48:28.281Z,10.47
2023-04-02T12:51:17.700Z,10.36
2023-04-02T12:54:08.341Z,10.39
2023-04-02T12:57:37.982Z,10.51
2023-04-02T13:00:34.862Z,10.61
2023-04-02T13:03:23.841Z,10.51
2023-04-02T13:06:24.820Z,10.67
2023-04-02T13:09:31.304Z,10.76
2023-04-02T13:12:29.905Z,10.85
2023-04-02T13:15:23.358Z,10.96
2023-04-02T13:18:22.325Z,10.91
2023-04-02T13:21:28.570Z,10.85
2023-04-02T13:24:20.242Z,10.78
2023-04-02T13:27:12.173Z,10.75
2023-04-02T13:30:09.490Z,10.67
2023-04-02T13:32:59.833Z,10.65
2023-04-02T13:35:49.962Z,10.65
2023-04-02T13:38:39.394Z,10.64
2023-04-02T13:41:30.306Z,10.66
2023-04-02T13:44:23.061Z,10.64
2023-04-02T13:47:15.317Z,10.57
2023-04-02T13:50:05.072Z,10.39
2023-04-02T13:52:59.133Z,10.44
2023-04-02T13:55:48.617Z,10.46
2023-04-02T13:58:37.808Z,10.46
2023-04-02T14:01:27.686Z,10.48
2023-04-02T14:04:22.849Z,10.56
2023-04-02T14:07:30.079Z,10.57
2023-04-02T14:10:32.400Z,10.37
2023-04-02T14:13:45.051Z,10.42
2023-04-02T14:16:48.845Z,10.35
2023-04-02T14:19:55.537Z,10.27
2023-04-02T14:23:02.652Z,10.17
2023-04-02T14:25:58.125Z,10.11
2023-04-02T14:28:58.113Z,10.32
2023-04-02T14:31:54.593Z,10.32
2023-04-02T14:34:51.754Z,10.37
2023-04-02T14:37:47.237Z,10.30
2023-04-02T14:40:40.477Z,10.33
2023-04-02T14:43:39.309Z,10.17
2023-04-02T14:46:29.924Z,10.13
2023-04-02T14:49:25.574Z,10.10
2023-04-02T14:52:18.333Z,10.23
2023-04-02T14:55:16.276Z,10.24
2023-04-02T14:58:10.836Z,10.24
2023-04-02T15:01:05.105Z,10.21
2023-04-02T15:03:59.445Z,10.23
2023-04-02T15:06:52.940Z,10.08
2023-04-02T15:09:46.205Z,10.20
2023-04-02T15:12:38.814Z,10.13
2023-04-02T15:15:41.367Z,9.82
2023-04-02T15:18:31.408Z,10.04
2023-04-02T15:21:55.968Z,9.92
2023-04-02T15:24:57.353Z,9.75
2023-04-02T15:27:58.939Z,9.60
2023-04-02T15:30:52.680Z,9.42
2023-04-02T15:33:51.327Z,9.48
2023-04-02T15:37:08.854Z,9.55
2023-04-02T15:40:09.011Z,9.51
2023-04-02T15:43:08.843Z,9.46
2023-04-02T15:46:13.262Z,9.37
2023-04-02T15:49:16.398Z,9.22
2023-04-02T15:52:10.742Z,9.17
2023-04-02T15:55:13.318Z,9.07
2023-04-02T15:58:25.224Z,9.01
2023-04-02T16:01:25.872Z,8.91
2023-04-02T16:04:35.683Z,8.81
2023-04-02T16:07:47.842Z,8.78
2023-04-02T16:10:42.677Z,8.67
2023-04-02T16:13:34.292Z,8.64
2023-04-02T16:16:31.846Z,8.64
2023-04-02T16:19:26.933Z,8.61
2023-04-02T16:22:21.919Z,8.54
2023-04-02T16:25:19.206Z,8.51
2023-04-02T16:28:17.579Z,8.48
2023-04-02T16:31:11.720Z,8.51
2023-04-02T16:34:08.980Z,8.48
2023-04-02T16:37:06.261Z,8.48
2023-04-02T16:40:05.653Z,8.40
2023-04-02T16:43:01.442Z,8.35
2023-04-02T16:45:57.439Z,8.34
2023-04-02T16:48:52.921Z,8.32
2023-04-02T16:51:50.890Z,8.23
2023-04-02T16:54:48.959Z,8.07
2023-04-02T16:57:49.177Z,8.15
2023-04-02T17:00:43.441Z,8.12
2023-04-02T17:03:51.125Z,8.06
2023-04-02T17:06:43.301Z,7.99
2023-04-02T17:09:39.440Z,7.97
2023-04-02T17:12:40.025Z,7.94
2023-04-02T17:15:34.236Z,7.91
2023-04-02T17:18:26.462Z,7.77
2023-04-02T17:21:18.744Z,7.58
2023-04-02T17:24:19.092Z,7.68
2023-04-02T17:27:17.579Z,7.61
2023-04-02T17:30:17.506Z,7.64
2023-04-02T17:33:12.388Z,7.56
2023-04-02T17:36:25.214Z,7.46
2023-04-02T17:39:21.243Z,7.38
2023-04-02T17:42:16.576Z,7.31
2023-04-02T17:45:15.910Z,7.28
2023-04-02T17:48:13.196Z,7.26
2023-04-02T17:51:17.348Z,7.16
2023-04-02T17:54:23.044Z,7.08
2023-04-02T17:57:35.619Z,6.91
2023-04-02T18:00:39.804Z,6.98
2023-04-02T18:03:55.217Z,6.94
2023-04-02T18:06:53.428Z,6.79
2023-04-02T18:09:47.720Z,6.63
2023-04-02T18:12:55.676Z,6.55
2023-04-02T18:16:03.002Z,6.56
2023-04-02T18:19:07.151Z,6.47
2023-04-02T18:22:00.779Z,6.34
2023-04-02T18:25:25.036Z,6.25
2023-04-02T18:28:39.724Z,6.29
2023-04-02T18:31:39.107Z,6.24
2023-04-02T18:34:40.409Z,6.25
2023-04-02T18:37:38.327Z,6.19
2023-04-02T18:40:36.747Z,6.16
2023-04-02T18:43:38.193Z,6.15
2023-04-02T18:46:40.767Z,6.16
2023-04-02T18:49:36.804Z,6.10
2023-04-02T18:52:27.037Z,5.97
2023-04-02T18:55:19.891Z,6.00
2023-04-02T18:58:14.712Z,5.94
2023-04-02T19:01:06.941Z,5.95
2023-04-02T19:04:02.407Z,5.90
2023-04-02T19:06:58.550Z,5.87
2023-04-02T19:09:49.897Z,5.86
2023-04-02T19:12:39.085Z,5.86
2023-04-02T19:15:35.660Z,5.85
2023-04-02T19:18:37.148Z,5.89
2023-04-02T19:21:36.349Z,5.82
2023-04-02T19:24:41.709Z,5.81
2023-04-02T19:27:38.227Z,5.80
2023-04-02T19:30:38.786Z,5.85
2023-04-02T19:33:44.525Z,5.32
2023-04-02T19:36:45.867Z,5.83
2023-04-02T19:39:54.511Z,5.80
2023-04-02T19:42:46.024Z,5.81
2023-04-02T19:45:38.629Z,5.79
2023-04-02T19:48:31.784Z,5.77
2023-04-02T19:51:21.713Z,5.75
2023-04-02T19:54:13.827Z,5.77
2023-04-02T19:57:04.073Z,5.79
2023-04-02T19:59:54.854Z,5.72
2023-04-02T20:02:43.525Z,5.77
2023-04-02T20:05:33.148Z,5.81
2023-04-02T20:08:22.268Z,5.80
2023-04-02T20:11:12.421Z,5.78
2023-04-02T20:14:01.591Z,5.74
2023-04-02T20:16:50.274Z,5.70
2023-04-02T20:19:39.742Z,5.72
2023-04-02T20:22:28.867Z,5.75
2023-04-02T20:25:17.618Z,5.24
2023-04-02T20:28:07.743Z,5.77
2023-04-02T20:31:07.888Z,5.74
2023-04-02T20:33:57.362Z,5.69
2023-04-02T20:36:47.104Z,5.69
2023-04-02T20:39:35.847Z,5.66
2023-04-02T20:42:25.456Z,5.67
2023-04-02T20:45:15.856Z,5.65
2023-04-02T20:48:05.705Z,5.63
2023-04-02T20:50:55.508Z,5.61
2023-04-02T20:53:44.793Z,5.55
2023-04-02T20:56:33.439Z,5.62
2023-04-02T20:59:22.924Z,5.64
2023-04-02T21:02:13.269Z,5.67
2023-04-02T21:05:03.306Z,5.69
2023-04-02T21:07:52.552Z,5.65
2023-04-02T21:10:41.865Z,5.66
2023-04-02T21:13:31.075Z,5.48
2023-04-02T21:16:22.841Z,5.67
2023-04-02T21:19:13.200Z,5.54
2023-04-02T21:22:03.812Z,5.63
2023-04-02T21:24:52.567Z,5.69
2023-04-02T21:27:41.738Z,5.29
2023-04-02T21:30:30.507Z,5.69
2023-04-02T21:33:21.029Z,5.67
2023-04-02T21:36:13.213Z,5.45
2023-04-02T21:39:05.408Z,5.64
2023-04-02T21:41:54.815Z,5.67
2023-04-02T21:44:44.050Z,5.71
2023-04-02T21:47:32.790Z,5.74
2023-04-02T21:50:22.355Z,5.75
2023-04-02T21:53:12.525Z,5.75
2023-04-02T21:56:03.112Z,5.34
2023-04-02T21:58:52.693Z,5.70
2023-04-02T22:01:43.886Z,5.66
2023-04-02T22:04:33.532Z,5.71
2023-04-02T22:07:22.829Z,5.73
2023-04-02T22:10:13.022Z,5.66
2023-04-02T22:13:02.846Z,5.71
2023-04-02T22:15:51.528Z,5.72
2023-04-02T22:18:42.743Z,5.72
2023-04-02T22:21:33.029Z,5.67
2023-04-02T22:24:22.941Z,5.75
2023-04-02T22:27:14.516Z,5.49
2023-04-02T22:30:03.539Z,5.75
2023-04-02T22:32:52.289Z,5.75
2023-04-02T22:35:41.870Z,5.68
2023-04-02T22:38:31.742Z,5.69
2023-04-02T22:41:22.683Z,5.67
2023-04-02T22:44:15.904Z,5.62
2023-04-02T22:47:05.346Z,5.69
2023-04-02T22:49:53.980Z,5.68
2023-04-02T22:52:43.615Z,5.59
2023-04-02T22:55:32.314Z,5.65
2023-04-02T22:58:24.446Z,5.58
2023-04-02T23:01:17.880Z,5.47
2023-04-02T23:04:07.453Z,5.46
2023-04-02T23:06:56.254Z,5.61
2023-04-02T23:09:46.064Z,5.44
2023-04-02T23:12:34.762Z,5.59
2023-04-02T23:15:24.276Z,5.59
2023-04-02T23:18:14.307Z,5.54
2023-04-02T23:21:05.209Z,5.45
2023-04-02T23:23:54.991Z,5.38
2023-04-02T23:26:43.681Z,5.54
2023-04-02T23:29:32.781Z,5.54
2023-04-02T23:32:21.512Z,5.58
2023-04-02T23:35:12.700Z,5.43
2023-04-02T23:38:01.365Z,5.35
2023-04-02T23:40:51.149Z,5.23
2023-04-02T23:43:41.007Z,5.56
2023-04-02T23:46:31.593Z,5.57
2023-04-02T23:49:21.127Z,5.45
2023-04-02T23:52:11.691Z,5.53
2023-04-02T23:55:00.433Z,5.58
2023-04-02T23:57:49.544Z,5.49
